sensor_id;sensor_type;location;lat;lon;timestamp;P1;durP1;ratioP1;P2;durP2;ratioP2
15112;SDS011;7657;50.140;7.076;2023-06-22T00:00:48;7.22;;;5.13;;
15112;SDS011;7657;50.140;7.076;2023-06-22T00:03:15;6.18;;;5.57;;
15112;SDS011;7657;50.140;7.076;2023-06-22T00:05:43;5.90;;;5.40;;
15112;SDS011;7657;50.140;7.076;2023-06-22T00:08:10;5.65;;;5.07;;
15112;SDS011;7657;50.140;7.076;2023-06-22T00:10:37;5.68;;;4.75;;
15112;SDS011;7657;50.140;7.076;2023-06-22T00:13:05;5.97;;;5.07;;
15112;SDS011;7657;50.140;7.076;2023-06-22T00:15:33;5.35;;;4.85;;
15112;SDS011;7657;50.140;7.076;2023-06-22T00:18:00;7.38;;;5.38;;
15112;SDS011;7657;50.140;7.076;2023-06-22T00:20:27;9.02;;;5.90;;
15112;SDS011;7657;50.140;7.076;2023-06-22T00:22:55;5.57;;;5.03;;
15112;SDS011;7657;50.140;7.076;2023-06-22T00:25:23;5.60;;;5.10;;
15112;SDS011;7657;50.140;7.076;2023-06-22T00:27:50;5.47;;;4.97;;
15112;SDS011;7657;50.140;7.076;2023-06-22T00:30:18;6.25;;;5.65;;
15112;SDS011;7657;50.140;7.076;2023-06-22T00:32:45;8.43;;;5.82;;
15112;SDS011;7657;50.140;7.076;2023-06-22T00:35:12;5.65;;;5.15;;
15112;SDS011;7657;50.140;7.076;2023-06-22T00:37:39;5.35;;;4.85;;
15112;SDS011;7657;50.140;7.076;2023-06-22T00:40:07;6.25;;;5.53;;
15112;SDS011;7657;50.140;7.076;2023-06-22T00:42:36;6.22;;;5.63;;
15112;SDS011;7657;50.140;7.076;2023-06-22T00:45:03;8.90;;;5.90;;
15112;SDS011;7657;50.140;7.076;2023-06-22T00:47:32;6.00;;;5.50;;
15112;SDS011;7657;50.140;7.076;2023-06-22T00:50:01;6.22;;;5.50;;
15112;SDS011;7657;50.140;7.076;2023-06-22T00:52:29;5.50;;;4.90;;
15112;SDS011;7657;50.140;7.076;2023-06-22T00:54:58;6.45;;;5.47;;
15112;SDS011;7657;50.140;7.076;2023-06-22T00:57:27;5.68;;;5.18;;
15112;SDS011;7657;50.140;7.076;2023-06-22T00:59:54;6.55;;;5.45;;
15112;SDS011;7657;50.140;7.076;2023-06-22T01:02:21;6.13;;;5.60;;
15112;SDS011;7657;50.140;7.076;2023-06-22T01:04:49;5.65;;;5.15;;
15112;SDS011;7657;50.140;7.076;2023-06-22T01:07:18;6.25;;;5.47;;
15112;SDS011;7657;50.140;7.076;2023-06-22T01:09:56;6.35;;;5.40;;
15112;SDS011;7657;50.140;7.076;2023-06-22T01:12:29;5.32;;;4.85;;
15112;SDS011;7657;50.140;7.076;2023-06-22T01:15:02;6.35;;;5.75;;
15112;SDS011;7657;50.140;7.076;2023-06-22T01:17:34;6.45;;;5.85;;
15112;SDS011;7657;50.140;7.076;2023-06-22T01:20:04;6.82;;;6.22;;
15112;SDS011;7657;50.140;7.076;2023-06-22T01:22:42;6.20;;;5.63;;
15112;SDS011;7657;50.140;7.076;2023-06-22T01:25:28;6.18;;;5.60;;
15112;SDS011;7657;50.140;7.076;2023-06-22T01:28:03;6.85;;;5.95;;
15112;SDS011;7657;50.140;7.076;2023-06-22T01:30:41;6.53;;;5.65;;
15112;SDS011;7657;50.140;7.076;2023-06-22T01:33:11;6.15;;;5.50;;
15112;SDS011;7657;50.140;7.076;2023-06-22T01:35:40;7.43;;;6.10;;
15112;SDS011;7657;50.140;7.076;2023-06-22T01:38:07;7.72;;;6.35;;
15112;SDS011;7657;50.140;7.076;2023-06-22T01:40:35;6.85;;;6.15;;
15112;SDS011;7657;50.140;7.076;2023-06-22T01:43:03;7.60;;;6.40;;
15112;SDS011;7657;50.140;7.076;2023-06-22T01:45:31;6.50;;;5.82;;
15112;SDS011;7657;50.140;7.076;2023-06-22T01:47:59;6.50;;;5.90;;
15112;SDS011;7657;50.140;7.076;2023-06-22T01:50:27;7.28;;;6.20;;
15112;SDS011;7657;50.140;7.076;2023-06-22T01:52:54;6.65;;;5.97;;
15112;SDS011;7657;50.140;7.076;2023-06-22T01:55:21;6.47;;;5.88;;
15112;SDS011;7657;50.140;7.076;2023-06-22T01:57:48;8.52;;;6.65;;
15112;SDS011;7657;50.140;7.076;2023-06-22T02:00:18;6.70;;;6.03;;
15112;SDS011;7657;50.140;7.076;2023-06-22T02:02:50;8.70;;;6.43;;
15112;SDS011;7657;50.140;7.076;2023-06-22T02:05:23;6.88;;;6.22;;
15112;SDS011;7657;50.140;7.076;2023-06-22T02:07:54;8.20;;;6.60;;
15112;SDS011;7657;50.140;7.076;2023-06-22T02:10:24;7.95;;;6.57;;
15112;SDS011;7657;50.140;7.076;2023-06-22T02:12:53;7.32;;;6.63;;
15112;SDS011;7657;50.140;7.076;2023-06-22T02:15:20;8.63;;;7.47;;
15112;SDS011;7657;50.140;7.076;2023-06-22T02:17:47;7.57;;;6.57;;
15112;SDS011;7657;50.140;7.076;2023-06-22T02:20:14;8.15;;;7.35;;
15112;SDS011;7657;50.140;7.076;2023-06-22T02:22:43;7.90;;;7.15;;
15112;SDS011;7657;50.140;7.076;2023-06-22T02:25:10;8.13;;;6.90;;
15112;SDS011;7657;50.140;7.076;2023-06-22T02:27:37;8.32;;;6.55;;
15112;SDS011;7657;50.140;7.076;2023-06-22T02:30:06;7.53;;;6.72;;
15112;SDS011;7657;50.140;7.076;2023-06-22T02:32:34;8.38;;;6.95;;
15112;SDS011;7657;50.140;7.076;2023-06-22T02:35:01;7.97;;;7.22;;
15112;SDS011;7657;50.140;7.076;2023-06-22T02:37:29;8.25;;;7.22;;
15112;SDS011;7657;50.140;7.076;2023-06-22T02:39:58;7.28;;;6.57;;
15112;SDS011;7657;50.140;7.076;2023-06-22T02:42:25;7.22;;;6.53;;
15112;SDS011;7657;50.140;7.076;2023-06-22T02:44:51;8.52;;;6.72;;
15112;SDS011;7657;50.140;7.076;2023-06-22T02:47:18;8.13;;;7.30;;
15112;SDS011;7657;50.140;7.076;2023-06-22T02:49:45;6.93;;;6.30;;
15112;SDS011;7657;50.140;7.076;2023-06-22T02:52:12;7.47;;;6.78;;
15112;SDS011;7657;50.140;7.076;2023-06-22T02:54:39;9.20;;;7.38;;
15112;SDS011;7657;50.140;7.076;2023-06-22T02:57:07;7.80;;;7.00;;
15112;SDS011;7657;50.140;7.076;2023-06-22T02:59:38;7.53;;;6.82;;
15112;SDS011;7657;50.140;7.076;2023-06-22T03:02:05;8.10;;;7.03;;
15112;SDS011;7657;50.140;7.076;2023-06-22T03:04:32;9.23;;;7.00;;
15112;SDS011;7657;50.140;7.076;2023-06-22T03:07:00;8.00;;;7.20;;
15112;SDS011;7657;50.140;7.076;2023-06-22T03:09:27;7.32;;;6.63;;
15112;SDS011;7657;50.140;7.076;2023-06-22T03:11:54;9.85;;;7.50;;
15112;SDS011;7657;50.140;7.076;2023-06-22T03:14:23;8.63;;;7.38;;
15112;SDS011;7657;50.140;7.076;2023-06-22T03:16:49;8.02;;;7.22;;
15112;SDS011;7657;50.140;7.076;2023-06-22T03:19:16;7.55;;;6.72;;
15112;SDS011;7657;50.140;7.076;2023-06-22T03:21:44;8.20;;;7.40;;
15112;SDS011;7657;50.140;7.076;2023-06-22T03:24:11;9.80;;;7.57;;
15112;SDS011;7657;50.140;7.076;2023-06-22T03:26:38;8.38;;;7.53;;
15112;SDS011;7657;50.140;7.076;2023-06-22T03:29:05;8.52;;;7.38;;
15112;SDS011;7657;50.140;7.076;2023-06-22T03:31:33;8.15;;;7.38;;
15112;SDS011;7657;50.140;7.076;2023-06-22T03:34:00;8.45;;;7.63;;
15112;SDS011;7657;50.140;7.076;2023-06-22T03:36:27;8.27;;;7.47;;
15112;SDS011;7657;50.140;7.076;2023-06-22T03:38:54;8.57;;;7.70;;
15112;SDS011;7657;50.140;7.076;2023-06-22T03:41:20;8.25;;;6.97;;
15112;SDS011;7657;50.140;7.076;2023-06-22T03:43:47;10.60;;;7.68;;
15112;SDS011;7657;50.140;7.076;2023-06-22T03:46:14;8.48;;;7.78;;
15112;SDS011;7657;50.140;7.076;2023-06-22T03:48:42;8.15;;;7.38;;
15112;SDS011;7657;50.140;7.076;2023-06-22T03:51:09;9.10;;;7.90;;
15112;SDS011;7657;50.140;7.076;2023-06-22T03:53:36;10.48;;;8.63;;
15112;SDS011;7657;50.140;7.076;2023-06-22T03:56:03;8.55;;;7.65;;
15112;SDS011;7657;50.140;7.076;2023-06-22T03:58:30;8.45;;;7.65;;
15112;SDS011;7657;50.140;7.076;2023-06-22T04:00:57;7.85;;;7.13;;
15112;SDS011;7657;50.140;7.076;2023-06-22T04:03:25;7.97;;;7.22;;
15112;SDS011;7657;50.140;7.076;2023-06-22T04:05:53;8.60;;;7.70;;
15112;SDS011;7657;50.140;7.076;2023-06-22T04:08:20;7.88;;;7.13;;
15112;SDS011;7657;50.140;7.076;2023-06-22T04:10:47;9.30;;;7.40;;
15112;SDS011;7657;50.140;7.076;2023-06-22T04:13:14;7.50;;;6.80;;
15112;SDS011;7657;50.140;7.076;2023-06-22T04:15:41;7.78;;;7.03;;
15112;SDS011;7657;50.140;7.076;2023-06-22T04:18:08;9.00;;;7.13;;
15112;SDS011;7657;50.140;7.076;2023-06-22T04:20:35;8.18;;;7.38;;
15112;SDS011;7657;50.140;7.076;2023-06-22T04:23:03;7.72;;;7.03;;
15112;SDS011;7657;50.140;7.076;2023-06-22T04:25:30;9.20;;;7.13;;
15112;SDS011;7657;50.140;7.076;2023-06-22T04:27:57;8.43;;;7.53;;
15112;SDS011;7657;50.140;7.076;2023-06-22T04:30:24;8.70;;;7.90;;
15112;SDS011;7657;50.140;7.076;2023-06-22T04:32:51;9.30;;;8.30;;
15112;SDS011;7657;50.140;7.076;2023-06-22T04:35:22;10.70;;;8.20;;
15112;SDS011;7657;50.140;7.076;2023-06-22T04:37:49;9.27;;;7.85;;
15112;SDS011;7657;50.140;7.076;2023-06-22T04:40:21;9.98;;;8.15;;
15112;SDS011;7657;50.140;7.076;2023-06-22T04:42:48;9.57;;;8.65;;
15112;SDS011;7657;50.140;7.076;2023-06-22T04:45:18;9.55;;;8.30;;
15112;SDS011;7657;50.140;7.076;2023-06-22T04:47:46;9.10;;;8.27;;
15112;SDS011;7657;50.140;7.076;2023-06-22T04:50:13;9.93;;;8.88;;
15112;SDS011;7657;50.140;7.076;2023-06-22T04:52:40;9.05;;;8.13;;
15112;SDS011;7657;50.140;7.076;2023-06-22T04:55:07;10.57;;;8.60;;
15112;SDS011;7657;50.140;7.076;2023-06-22T04:57:35;11.52;;;9.50;;
15112;SDS011;7657;50.140;7.076;2023-06-22T05:00:05;10.75;;;9.45;;
15112;SDS011;7657;50.140;7.076;2023-06-22T05:02:38;10.10;;;8.90;;
15112;SDS011;7657;50.140;7.076;2023-06-22T05:05:06;10.77;;;9.70;;
15112;SDS011;7657;50.140;7.076;2023-06-22T05:07:33;10.18;;;9.18;;
15112;SDS011;7657;50.140;7.076;2023-06-22T05:10:00;10.55;;;9.02;;
15112;SDS011;7657;50.140;7.076;2023-06-22T05:12:28;11.35;;;9.60;;
15112;SDS011;7657;50.140;7.076;2023-06-22T05:14:57;11.10;;;9.13;;
15112;SDS011;7657;50.140;7.076;2023-06-22T05:17:24;10.48;;;9.35;;
15112;SDS011;7657;50.140;7.076;2023-06-22T05:19:51;9.18;;;8.27;;
15112;SDS011;7657;50.140;7.076;2023-06-22T05:22:18;8.77;;;7.60;;
15112;SDS011;7657;50.140;7.076;2023-06-22T05:24:45;10.32;;;9.30;;
15112;SDS011;7657;50.140;7.076;2023-06-22T05:27:12;9.07;;;8.27;;
15112;SDS011;7657;50.140;7.076;2023-06-22T05:29:39;9.55;;;8.57;;
15112;SDS011;7657;50.140;7.076;2023-06-22T05:32:09;8.98;;;8.18;;
15112;SDS011;7657;50.140;7.076;2023-06-22T05:34:36;11.18;;;7.95;;
15112;SDS011;7657;50.140;7.076;2023-06-22T05:37:03;9.23;;;8.27;;
15112;SDS011;7657;50.140;7.076;2023-06-22T05:39:30;8.43;;;7.65;;
15112;SDS011;7657;50.140;7.076;2023-06-22T05:41:57;9.13;;;8.02;;
15112;SDS011;7657;50.140;7.076;2023-06-22T05:44:24;10.10;;;7.93;;
15112;SDS011;7657;50.140;7.076;2023-06-22T05:46:51;9.55;;;8.63;;
15112;SDS011;7657;50.140;7.076;2023-06-22T05:49:19;9.68;;;8.68;;
15112;SDS011;7657;50.140;7.076;2023-06-22T05:51:47;9.82;;;8.38;;
15112;SDS011;7657;50.140;7.076;2023-06-22T05:54:14;9.52;;;8.55;;
15112;SDS011;7657;50.140;7.076;2023-06-22T05:56:43;10.15;;;8.68;;
15112;SDS011;7657;50.140;7.076;2023-06-22T05:59:09;9.57;;;8.50;;
15112;SDS011;7657;50.140;7.076;2023-06-22T06:01:37;9.63;;;8.50;;
15112;SDS011;7657;50.140;7.076;2023-06-22T06:04:05;10.23;;;9.15;;
15112;SDS011;7657;50.140;7.076;2023-06-22T06:06:34;8.82;;;7.93;;
15112;SDS011;7657;50.140;7.076;2023-06-22T06:09:02;10.30;;;8.48;;
15112;SDS011;7657;50.140;7.076;2023-06-22T06:11:29;9.35;;;8.38;;
15112;SDS011;7657;50.140;7.076;2023-06-22T06:13:56;11.02;;;8.38;;
15112;SDS011;7657;50.140;7.076;2023-06-22T06:16:23;8.75;;;7.85;;
15112;SDS011;7657;50.140;7.076;2023-06-22T06:18:50;8.98;;;7.68;;
15112;SDS011;7657;50.140;7.076;2023-06-22T06:21:18;9.07;;;7.60;;
15112;SDS011;7657;50.140;7.076;2023-06-22T06:23:46;9.52;;;8.43;;
15112;SDS011;7657;50.140;7.076;2023-06-22T06:26:13;9.35;;;7.72;;
15112;SDS011;7657;50.140;7.076;2023-06-22T06:28:41;9.27;;;8.32;;
15112;SDS011;7657;50.140;7.076;2023-06-22T06:31:08;9.85;;;7.88;;
15112;SDS011;7657;50.140;7.076;2023-06-22T06:33:37;8.57;;;7.65;;
15112;SDS011;7657;50.140;7.076;2023-06-22T06:36:04;9.50;;;8.43;;
15112;SDS011;7657;50.140;7.076;2023-06-22T06:38:33;8.98;;;7.28;;
15112;SDS011;7657;50.140;7.076;2023-06-22T06:41:01;9.55;;;7.90;;
15112;SDS011;7657;50.140;7.076;2023-06-22T06:43:28;7.82;;;7.13;;
15112;SDS011;7657;50.140;7.076;2023-06-22T06:45:55;8.65;;;7.57;;
15112;SDS011;7657;50.140;7.076;2023-06-22T06:48:22;7.95;;;7.15;;
15112;SDS011;7657;50.140;7.076;2023-06-22T06:50:49;8.50;;;7.60;;
15112;SDS011;7657;50.140;7.076;2023-06-22T06:53:16;8.77;;;7.82;;
15112;SDS011;7657;50.140;7.076;2023-06-22T06:55:43;9.77;;;8.43;;
15112;SDS011;7657;50.140;7.076;2023-06-22T06:58:12;9.23;;;7.88;;
15112;SDS011;7657;50.140;7.076;2023-06-22T07:00:40;8.52;;;7.63;;
15112;SDS011;7657;50.140;7.076;2023-06-22T07:03:07;8.93;;;8.00;;
15112;SDS011;7657;50.140;7.076;2023-06-22T07:05:34;8.52;;;7.72;;
15112;SDS011;7657;50.140;7.076;2023-06-22T07:08:01;8.30;;;7.50;;
15112;SDS011;7657;50.140;7.076;2023-06-22T07:10:28;10.40;;;8.15;;
15112;SDS011;7657;50.140;7.076;2023-06-22T07:12:55;9.95;;;8.35;;
15112;SDS011;7657;50.140;7.076;2023-06-22T07:15:24;9.32;;;8.27;;
15112;SDS011;7657;50.140;7.076;2023-06-22T07:17:51;9.98;;;7.63;;
15112;SDS011;7657;50.140;7.076;2023-06-22T07:20:18;9.25;;;8.32;;
15112;SDS011;7657;50.140;7.076;2023-06-22T07:22:44;9.30;;;8.32;;
15112;SDS011;7657;50.140;7.076;2023-06-22T07:25:12;9.25;;;8.27;;
15112;SDS011;7657;50.140;7.076;2023-06-22T07:27:42;9.98;;;8.32;;
15112;SDS011;7657;50.140;7.076;2023-06-22T07:30:11;9.93;;;8.38;;
15112;SDS011;7657;50.140;7.076;2023-06-22T07:32:40;9.90;;;8.38;;
15112;SDS011;7657;50.140;7.076;2023-06-22T07:35:07;8.95;;;7.97;;
15112;SDS011;7657;50.140;7.076;2023-06-22T07:37:34;8.93;;;7.75;;
15112;SDS011;7657;50.140;7.076;2023-06-22T07:40:02;9.73;;;7.97;;
15112;SDS011;7657;50.140;7.076;2023-06-22T07:42:31;9.27;;;7.43;;
15112;SDS011;7657;50.140;7.076;2023-06-22T07:44:59;7.72;;;7.00;;
15112;SDS011;7657;50.140;7.076;2023-06-22T07:47:26;8.63;;;7.78;;
15112;SDS011;7657;50.140;7.076;2023-06-22T07:49:55;7.60;;;6.80;;
15112;SDS011;7657;50.140;7.076;2023-06-22T07:52:26;9.73;;;8.35;;
15112;SDS011;7657;50.140;7.076;2023-06-22T07:54:53;8.25;;;7.38;;
15112;SDS011;7657;50.140;7.076;2023-06-22T07:57:20;7.65;;;6.85;;
15112;SDS011;7657;50.140;7.076;2023-06-22T07:59:47;8.27;;;7.32;;
15112;SDS011;7657;50.140;7.076;2023-06-22T08:02:14;8.23;;;7.38;;
15112;SDS011;7657;50.140;7.076;2023-06-22T08:04:41;8.05;;;7.25;;
15112;SDS011;7657;50.140;7.076;2023-06-22T08:07:09;9.23;;;7.68;;
15112;SDS011;7657;50.140;7.076;2023-06-22T08:09:36;8.45;;;7.57;;
15112;SDS011;7657;50.140;7.076;2023-06-22T08:12:03;9.50;;;7.43;;
15112;SDS011;7657;50.140;7.076;2023-06-22T08:14:31;9.57;;;6.97;;
15112;SDS011;7657;50.140;7.076;2023-06-22T08:17:01;7.82;;;7.05;;
15112;SDS011;7657;50.140;7.076;2023-06-22T08:19:28;8.50;;;6.80;;
15112;SDS011;7657;50.140;7.076;2023-06-22T08:21:55;8.23;;;7.43;;
15112;SDS011;7657;50.140;7.076;2023-06-22T08:24:24;8.77;;;7.45;;
15112;SDS011;7657;50.140;7.076;2023-06-22T08:26:51;8.32;;;7.00;;
15112;SDS011;7657;50.140;7.076;2023-06-22T08:29:18;8.93;;;7.85;;
15112;SDS011;7657;50.140;7.076;2023-06-22T08:31:45;8.63;;;7.72;;
15112;SDS011;7657;50.140;7.076;2023-06-22T08:34:12;10.90;;;8.13;;
15112;SDS011;7657;50.140;7.076;2023-06-22T08:36:39;8.23;;;7.43;;
15112;SDS011;7657;50.140;7.076;2023-06-22T08:39:09;10.15;;;7.68;;
15112;SDS011;7657;50.140;7.076;2023-06-22T08:41:38;9.05;;;7.50;;
15112;SDS011;7657;50.140;7.076;2023-06-22T08:44:05;7.82;;;7.03;;
15112;SDS011;7657;50.140;7.076;2023-06-22T08:46:31;9.18;;;8.27;;
15112;SDS011;7657;50.140;7.076;2023-06-22T08:48:58;7.75;;;7.05;;
15112;SDS011;7657;50.140;7.076;2023-06-22T08:51:25;8.38;;;7.13;;
15112;SDS011;7657;50.140;7.076;2023-06-22T08:53:53;8.10;;;7.30;;
15112;SDS011;7657;50.140;7.076;2023-06-22T08:56:20;8.68;;;7.88;;
15112;SDS011;7657;50.140;7.076;2023-06-22T08:58:48;9.43;;;8.20;;
15112;SDS011;7657;50.140;7.076;2023-06-22T09:01:15;8.18;;;7.35;;
15112;SDS011;7657;50.140;7.076;2023-06-22T09:03:42;8.18;;;7.40;;
15112;SDS011;7657;50.140;7.076;2023-06-22T09:06:09;8.02;;;7.22;;
15112;SDS011;7657;50.140;7.076;2023-06-22T09:08:37;6.90;;;6.20;;
15112;SDS011;7657;50.140;7.076;2023-06-22T09:11:04;8.85;;;7.15;;
15112;SDS011;7657;50.140;7.076;2023-06-22T09:13:31;7.95;;;6.95;;
15112;SDS011;7657;50.140;7.076;2023-06-22T09:16:01;7.72;;;7.03;;
15112;SDS011;7657;50.140;7.076;2023-06-22T09:18:28;9.13;;;7.07;;
15112;SDS011;7657;50.140;7.076;2023-06-22T09:20:55;8.48;;;7.60;;
15112;SDS011;7657;50.140;7.076;2023-06-22T09:23:22;9.43;;;7.60;;
15112;SDS011;7657;50.140;7.076;2023-06-22T09:25:49;8.23;;;7.43;;
15112;SDS011;7657;50.140;7.076;2023-06-22T09:28:16;8.32;;;7.53;;
15112;SDS011;7657;50.140;7.076;2023-06-22T09:30:43;10.13;;;7.60;;
15112;SDS011;7657;50.140;7.076;2023-06-22T09:33:11;8.20;;;7.50;;
15112;SDS011;7657;50.140;7.076;2023-06-22T09:35:38;8.00;;;7.20;;
15112;SDS011;7657;50.140;7.076;2023-06-22T09:38:05;7.63;;;6.85;;
15112;SDS011;7657;50.140;7.076;2023-06-22T09:40:32;8.05;;;7.25;;
15112;SDS011;7657;50.140;7.076;2023-06-22T09:43:04;8.23;;;7.43;;
15112;SDS011;7657;50.140;7.076;2023-06-22T09:45:31;7.80;;;7.05;;
15112;SDS011;7657;50.140;7.076;2023-06-22T09:47:58;7.90;;;7.00;;
15112;SDS011;7657;50.140;7.076;2023-06-22T09:50:27;7.93;;;7.13;;
15112;SDS011;7657;50.140;7.076;2023-06-22T09:52:53;8.05;;;7.03;;
15112;SDS011;7657;50.140;7.076;2023-06-22T09:55:21;10.25;;;8.45;;
15112;SDS011;7657;50.140;7.076;2023-06-22T09:57:48;12.60;;;8.27;;
15112;SDS011;7657;50.140;7.076;2023-06-22T10:00:17;12.05;;;7.85;;
15112;SDS011;7657;50.140;7.076;2023-06-22T10:02:44;9.90;;;8.30;;
15112;SDS011;7657;50.140;7.076;2023-06-22T10:05:13;10.35;;;8.35;;
15112;SDS011;7657;50.140;7.076;2023-06-22T10:07:41;10.35;;;8.80;;
15112;SDS011;7657;50.140;7.076;2023-06-22T10:10:09;9.82;;;8.82;;
15112;SDS011;7657;50.140;7.076;2023-06-22T10:12:36;9.65;;;8.50;;
15112;SDS011;7657;50.140;7.076;2023-06-22T10:15:04;13.02;;;9.50;;
15112;SDS011;7657;50.140;7.076;2023-06-22T10:17:32;9.52;;;8.52;;
15112;SDS011;7657;50.140;7.076;2023-06-22T10:19:58;9.65;;;8.65;;
15112;SDS011;7657;50.140;7.076;2023-06-22T10:22:31;11.65;;;8.57;;
15112;SDS011;7657;50.140;7.076;2023-06-22T10:24:59;10.80;;;9.30;;
15112;SDS011;7657;50.140;7.076;2023-06-22T10:27:26;10.27;;;9.27;;
15112;SDS011;7657;50.140;7.076;2023-06-22T10:29:52;9.07;;;8.15;;
15112;SDS011;7657;50.140;7.076;2023-06-22T10:32:20;9.88;;;8.90;;
15112;SDS011;7657;50.140;7.076;2023-06-22T10:34:46;10.15;;;9.05;;
15112;SDS011;7657;50.140;7.076;2023-06-22T10:37:13;9.90;;;8.48;;
15112;SDS011;7657;50.140;7.076;2023-06-22T10:39:40;9.20;;;8.30;;
15112;SDS011;7657;50.140;7.076;2023-06-22T10:42:08;9.82;;;8.93;;
15112;SDS011;7657;50.140;7.076;2023-06-22T10:44:35;10.25;;;9.27;;
15112;SDS011;7657;50.140;7.076;2023-06-22T10:47:04;9.95;;;8.95;;
15112;SDS011;7657;50.140;7.076;2023-06-22T10:49:31;10.57;;;8.95;;
15112;SDS011;7657;50.140;7.076;2023-06-22T10:51:58;10.57;;;9.38;;
15112;SDS011;7657;50.140;7.076;2023-06-22T10:54:25;9.00;;;8.18;;
15112;SDS011;7657;50.140;7.076;2023-06-22T10:56:52;9.95;;;9.05;;
15112;SDS011;7657;50.140;7.076;2023-06-22T10:59:20;10.27;;;8.55;;
15112;SDS011;7657;50.140;7.076;2023-06-22T11:01:48;9.32;;;8.43;;
15112;SDS011;7657;50.140;7.076;2023-06-22T11:04:15;10.07;;;9.07;;
15112;SDS011;7657;50.140;7.076;2023-06-22T11:06:42;9.63;;;8.63;;
15112;SDS011;7657;50.140;7.076;2023-06-22T11:09:09;11.38;;;8.27;;
15112;SDS011;7657;50.140;7.076;2023-06-22T11:11:36;9.52;;;8.63;;
15112;SDS011;7657;50.140;7.076;2023-06-22T11:14:03;9.82;;;8.68;;
15112;SDS011;7657;50.140;7.076;2023-06-22T11:16:31;9.95;;;8.95;;
15112;SDS011;7657;50.140;7.076;2023-06-22T11:18:59;11.48;;;9.00;;
15112;SDS011;7657;50.140;7.076;2023-06-22T11:21:26;9.90;;;9.00;;
15112;SDS011;7657;50.140;7.076;2023-06-22T11:23:53;11.50;;;9.00;;
15112;SDS011;7657;50.140;7.076;2023-06-22T11:26:20;8.77;;;7.90;;
15112;SDS011;7657;50.140;7.076;2023-06-22T11:28:47;9.55;;;8.48;;
15112;SDS011;7657;50.140;7.076;2023-06-22T11:31:14;9.50;;;8.50;;
15112;SDS011;7657;50.140;7.076;2023-06-22T11:33:42;9.23;;;8.30;;
15112;SDS011;7657;50.140;7.076;2023-06-22T11:36:10;9.80;;;8.85;;
15112;SDS011;7657;50.140;7.076;2023-06-22T11:38:37;8.65;;;7.85;;
15112;SDS011;7657;50.140;7.076;2023-06-22T11:41:04;9.38;;;8.48;;
15112;SDS011;7657;50.140;7.076;2023-06-22T11:43:31;9.02;;;7.80;;
15112;SDS011;7657;50.140;7.076;2023-06-22T11:45:58;8.95;;;8.15;;
15112;SDS011;7657;50.140;7.076;2023-06-22T11:48:25;8.20;;;7.40;;
15112;SDS011;7657;50.140;7.076;2023-06-22T11:50:54;9.27;;;8.38;;
15112;SDS011;7657;50.140;7.076;2023-06-22T11:53:21;9.45;;;8.50;;
15112;SDS011;7657;50.140;7.076;2023-06-22T11:55:48;10.07;;;8.70;;
15112;SDS011;7657;50.140;7.076;2023-06-22T11:58:15;11.88;;;8.20;;
15112;SDS011;7657;50.140;7.076;2023-06-22T12:00:43;9.60;;;8.68;;
15112;SDS011;7657;50.140;7.076;2023-06-22T12:03:10;8.45;;;7.43;;
15112;SDS011;7657;50.140;7.076;2023-06-22T12:05:37;8.65;;;7.90;;
15112;SDS011;7657;50.140;7.076;2023-06-22T12:08:06;8.70;;;7.85;;
15112;SDS011;7657;50.140;7.076;2023-06-22T12:10:32;8.48;;;7.68;;
15112;SDS011;7657;50.140;7.076;2023-06-22T12:13:00;9.15;;;8.27;;
15112;SDS011;7657;50.140;7.076;2023-06-22T12:15:27;8.65;;;7.88;;
15112;SDS011;7657;50.140;7.076;2023-06-22T12:17:54;8.70;;;7.90;;
15112;SDS011;7657;50.140;7.076;2023-06-22T12:20:20;9.32;;;8.02;;
15112;SDS011;7657;50.140;7.076;2023-06-22T12:22:47;8.88;;;7.97;;
15112;SDS011;7657;50.140;7.076;2023-06-22T12:25:17;9.63;;;8.65;;
15112;SDS011;7657;50.140;7.076;2023-06-22T12:27:44;9.30;;;8.35;;
15112;SDS011;7657;50.140;7.076;2023-06-22T12:30:11;9.98;;;8.98;;
15112;SDS011;7657;50.140;7.076;2023-06-22T12:32:38;9.98;;;9.07;;
15112;SDS011;7657;50.140;7.076;2023-06-22T12:35:05;9.23;;;8.32;;
15112;SDS011;7657;50.140;7.076;2023-06-22T12:37:38;10.48;;;9.13;;
15112;SDS011;7657;50.140;7.076;2023-06-22T12:40:06;10.02;;;8.73;;
15112;SDS011;7657;50.140;7.076;2023-06-22T12:42:35;8.98;;;8.10;;
15112;SDS011;7657;50.140;7.076;2023-06-22T12:45:02;9.07;;;7.38;;
15112;SDS011;7657;50.140;7.076;2023-06-22T12:47:29;8.30;;;7.50;;
15112;SDS011;7657;50.140;7.076;2023-06-22T12:49:56;8.77;;;7.78;;
15112;SDS011;7657;50.140;7.076;2023-06-22T12:52:23;8.68;;;7.90;;
15112;SDS011;7657;50.140;7.076;2023-06-22T12:54:50;9.85;;;7.82;;
15112;SDS011;7657;50.140;7.076;2023-06-22T12:57:17;10.50;;;7.95;;
15112;SDS011;7657;50.140;7.076;2023-06-22T12:59:45;10.10;;;8.23;;
15112;SDS011;7657;50.140;7.076;2023-06-22T13:02:12;9.20;;;7.63;;
15112;SDS011;7657;50.140;7.076;2023-06-22T13:04:39;8.35;;;7.50;;
15112;SDS011;7657;50.140;7.076;2023-06-22T13:07:08;9.27;;;7.70;;
15112;SDS011;7657;50.140;7.076;2023-06-22T13:09:35;9.70;;;8.80;;
15112;SDS011;7657;50.140;7.076;2023-06-22T13:12:03;10.20;;;9.20;;
15112;SDS011;7657;50.140;7.076;2023-06-22T13:14:30;10.57;;;8.98;;
15112;SDS011;7657;50.140;7.076;2023-06-22T13:16:58;10.13;;;8.90;;
15112;SDS011;7657;50.140;7.076;2023-06-22T13:19:25;11.98;;;9.35;;
15112;SDS011;7657;50.140;7.076;2023-06-22T13:21:54;9.95;;;8.95;;
15112;SDS011;7657;50.140;7.076;2023-06-22T13:24:20;10.98;;;9.00;;
15112;SDS011;7657;50.140;7.076;2023-06-22T13:26:48;11.30;;;9.55;;
15112;SDS011;7657;50.140;7.076;2023-06-22T13:29:15;11.35;;;9.00;;
15112;SDS011;7657;50.140;7.076;2023-06-22T13:31:41;14.10;;;9.77;;
15112;SDS011;7657;50.140;7.076;2023-06-22T13:34:10;13.32;;;11.32;;
15112;SDS011;7657;50.140;7.076;2023-06-22T13:36:37;10.82;;;6.95;;
15112;SDS011;7657;50.140;7.076;2023-06-22T13:39:04;6.22;;;4.10;;
15112;SDS011;7657;50.140;7.076;2023-06-22T13:41:31;3.72;;;3.22;;
15112;SDS011;7657;50.140;7.076;2023-06-22T13:43:58;5.80;;;4.07;;
15112;SDS011;7657;50.140;7.076;2023-06-22T13:46:25;9.95;;;4.72;;
15112;SDS011;7657;50.140;7.076;2023-06-22T13:48:51;9.27;;;4.60;;
15112;SDS011;7657;50.140;7.076;2023-06-22T13:51:20;6.07;;;4.07;;
15112;SDS011;7657;50.140;7.076;2023-06-22T13:53:47;5.65;;;4.10;;
15112;SDS011;7657;50.140;7.076;2023-06-22T13:56:13;5.72;;;3.70;;
15112;SDS011;7657;50.140;7.076;2023-06-22T13:58:40;7.70;;;4.20;;
15112;SDS011;7657;50.140;7.076;2023-06-22T14:01:08;6.50;;;4.57;;
15112;SDS011;7657;50.140;7.076;2023-06-22T14:03:35;7.30;;;4.95;;
15112;SDS011;7657;50.140;7.076;2023-06-22T14:06:02;6.07;;;4.22;;
15112;SDS011;7657;50.140;7.076;2023-06-22T14:08:30;7.63;;;4.40;;
15112;SDS011;7657;50.140;7.076;2023-06-22T14:10:57;24.38;;;6.05;;
15112;SDS011;7657;50.140;7.076;2023-06-22T14:13:24;19.60;;;6.25;;
15112;SDS011;7657;50.140;7.076;2023-06-22T14:15:51;18.33;;;6.43;;
15112;SDS011;7657;50.140;7.076;2023-06-22T14:18:19;12.75;;;6.22;;
15112;SDS011;7657;50.140;7.076;2023-06-22T14:20:47;11.32;;;5.85;;
15112;SDS011;7657;50.140;7.076;2023-06-22T14:23:14;12.23;;;6.70;;
15112;SDS011;7657;50.140;7.076;2023-06-22T14:25:42;15.30;;;7.28;;
15112;SDS011;7657;50.140;7.076;2023-06-22T14:28:09;15.13;;;6.78;;
15112;SDS011;7657;50.140;7.076;2023-06-22T14:30:36;10.23;;;6.13;;
15112;SDS011;7657;50.140;7.076;2023-06-22T14:33:03;10.15;;;6.47;;
15112;SDS011;7657;50.140;7.076;2023-06-22T14:35:30;12.13;;;6.45;;
15112;SDS011;7657;50.140;7.076;2023-06-22T14:37:57;12.38;;;6.00;;
15112;SDS011;7657;50.140;7.076;2023-06-22T14:40:23;11.70;;;6.43;;
15112;SDS011;7657;50.140;7.076;2023-06-22T14:42:52;11.35;;;6.50;;
15112;SDS011;7657;50.140;7.076;2023-06-22T14:45:21;11.23;;;6.03;;
15112;SDS011;7657;50.140;7.076;2023-06-22T14:47:48;13.25;;;5.97;;
15112;SDS011;7657;50.140;7.076;2023-06-22T14:50:15;12.90;;;5.65;;
15112;SDS011;7657;50.140;7.076;2023-06-22T14:52:43;13.13;;;5.78;;
15112;SDS011;7657;50.140;7.076;2023-06-22T14:55:10;12.30;;;5.68;;
15112;SDS011;7657;50.140;7.076;2023-06-22T14:57:37;12.68;;;5.22;;
15112;SDS011;7657;50.140;7.076;2023-06-22T15:00:06;7.05;;;4.30;;